createdAt,value
2023-03-26T00:07:03.119Z,0
2023-03-26T00:22:24.085Z,0
2023-03-26T00:37:45.049Z,0
2023-03-26T00:53:06.014Z,0
2023-03-26T01:08:27.000Z,0
2023-03-26T01:23:47.961Z,0
2023-03-26T01:39:07.000Z,0
2023-03-26T01:54:28.895Z,0
2023-03-26T02:09:49.000Z,0
2023-03-26T02:25:10.840Z,0
2023-03-26T02:40:31.000Z,0
2023-03-26T02:55:52.774Z,0
2023-03-26T03:11:13.000Z,0
2023-03-26T03:26:34.715Z,0
2023-03-26T03:41:55.680Z,0
2023-03-26T03:57:16.000Z,0
2023-03-26T04:12:37.000Z,0
2023-03-26T04:27:58.556Z,1
2023-03-26T04:43:19.000Z,20
2023-03-26T04:58:39.000Z,178
2023-03-26T05:14:00.342Z,532
2023-03-26T05:29:21.254Z,1011
2023-03-26T05:44:42.193Z,1957
2023-03-26T06:00:03.109Z,10654
2023-03-26T06:15:24.041Z,1309
2023-03-26T06:30:44.961Z,915
2023-03-26T06:46:05.894Z,1069
2023-03-26T07:01:26.820Z,1228
2023-03-26T07:16:47.724Z,1481
2023-03-26T07:32:08.657Z,2519
2023-03-26T07:47:29.000Z,4833
2023-03-26T08:02:50.520Z,3853
2023-03-26T08:18:10.460Z,5115
2023-03-26T08:33:31.373Z,3300
2023-03-26T08:48:52.000Z,2927
2023-03-26T09:04:13.227Z,2925
2023-03-26T09:19:34.125Z,4016
2023-03-26T09:34:55.084Z,7624
2023-03-26T09:50:15.978Z,4018
2023-03-26T10:05:36.920Z,3546
2023-03-26T10:20:57.840Z,5905
2023-03-26T10:22:18.916Z,5358
2023-03-26T10:23:40.000Z,5337
2023-03-26T10:25:01.051Z,5122
2023-03-26T10:26:22.000Z,5058
2023-03-26T10:27:42.217Z,5193
2023-03-26T10:29:03.000Z,5289
2023-03-26T10:30:24.352Z,5262
2023-03-26T10:31:45.397Z,5208
2023-03-26T10:33:06.474Z,5062
2023-03-26T10:34:27.000Z,4987
2023-03-26T10:37:09.000Z,5104
2023-03-26T10:38:30.730Z,5149
2023-03-26T10:39:51.000Z,5137
2023-03-26T10:41:12.883Z,5033
2023-03-26T10:42:33.000Z,5032
2023-03-26T10:43:55.016Z,5020
2023-03-26T10:45:15.108Z,5022
2023-03-26T10:46:36.164Z,4937
2023-03-26T10:47:57.231Z,4927
2023-03-26T10:49:18.339Z,3072
2023-03-26T10:50:39.399Z,4846
2023-03-26T10:52:00.468Z,4653
2023-03-26T10:53:21.000Z,4505
2023-03-26T10:54:42.621Z,4640
2023-03-26T10:56:03.000Z,4856
2023-03-26T10:57:24.740Z,3072
2023-03-26T10:58:45.821Z,4996
2023-03-26T11:00:06.881Z,4867
2023-03-26T11:01:27.945Z,4763
2023-03-26T11:02:48.004Z,4721
2023-03-26T11:04:09.099Z,4752
2023-03-26T11:05:30.157Z,4720
2023-03-26T11:06:51.000Z,4705
2023-03-26T11:08:12.295Z,4700
2023-03-26T11:09:33.000Z,4625
2023-03-26T11:10:54.442Z,4761
2023-03-26T11:12:15.000Z,4983
2023-03-26T11:13:36.581Z,5071
2023-03-26T11:14:57.627Z,5160
2023-03-26T11:16:18.713Z,5083
2023-03-26T11:17:39.762Z,5018
2023-03-26T11:19:00.833Z,4971
2023-03-26T11:20:20.916Z,4749
2023-03-26T11:21:41.990Z,4524
2023-03-26T11:23:03.057Z,4516
2023-03-26T11:24:24.122Z,4318
2023-03-26T11:25:45.179Z,4141
2023-03-26T11:27:06.246Z,4085
2023-03-26T11:28:27.325Z,4064
2023-03-26T11:29:48.385Z,4100
2023-03-26T11:31:09.456Z,4103
2023-03-26T11:32:30.544Z,3980
2023-03-26T11:33:51.000Z,3072
2023-03-26T11:35:12.664Z,3758
2023-03-26T11:36:33.711Z,3702
2023-03-26T11:37:53.823Z,3566
2023-03-26T11:39:14.000Z,3396
2023-03-26T11:40:35.952Z,3426
2023-03-26T11:41:57.012Z,3606
2023-03-26T11:43:18.078Z,3977
2023-03-26T11:44:39.145Z,4114
2023-03-26T11:46:00.217Z,4064
2023-03-26T11:47:21.254Z,3976
2023-03-26T11:48:42.351Z,3886
2023-03-26T11:50:03.000Z,3899
2023-03-26T11:51:24.488Z,3888
2023-03-26T11:52:45.547Z,3812
2023-03-26T11:54:06.625Z,3664
2023-03-26T11:55:26.675Z,3534
2023-03-26T11:56:47.768Z,3450
2023-03-26T11:58:08.804Z,3265
2023-03-26T11:59:29.865Z,3137
2023-03-26T12:00:50.961Z,2945
2023-03-26T12:02:12.022Z,2783
2023-03-26T12:03:33.104Z,2681
2023-03-26T12:04:54.156Z,2591
2023-03-26T12:06:15.000Z,2550
2023-03-26T12:07:36.296Z,2511
2023-03-26T12:08:57.366Z,2422
2023-03-26T12:10:18.429Z,2307
2023-03-26T12:11:39.498Z,2217
2023-03-26T12:12:59.568Z,2205
2023-03-26T12:14:20.643Z,2281
2023-03-26T12:15:41.711Z,2333
2023-03-26T12:17:02.000Z,2387
2023-03-26T12:18:23.851Z,2487
2023-03-26T12:19:44.000Z,2648
2023-03-26T12:21:04.997Z,2824
2023-03-26T12:22:26.053Z,3072
2023-03-26T12:23:47.140Z,3098
2023-03-26T12:25:08.205Z,3256
2023-03-26T12:26:29.263Z,3340
2023-03-26T12:27:50.000Z,3461
2023-03-26T12:29:11.413Z,3569
2023-03-26T12:30:32.000Z,3641
2023-03-26T12:31:53.520Z,3072
2023-03-26T12:33:14.000Z,3622
2023-03-26T12:34:35.678Z,3523
2023-03-26T12:35:56.753Z,3307
2023-03-26T12:37:17.817Z,2853
2023-03-26T12:38:37.912Z,2386
2023-03-26T12:39:58.961Z,2086
2023-03-26T12:41:20.000Z,1858
2023-03-26T12:42:41.116Z,1701
2023-03-26T12:44:02.000Z,1543
2023-03-26T12:45:23.246Z,1404
2023-03-26T12:46:44.000Z,1373
2023-03-26T12:48:05.364Z,1364
2023-03-26T12:49:26.418Z,1366
2023-03-26T12:50:47.497Z,1386
2023-03-26T12:52:08.580Z,1350
2023-03-26T12:53:29.644Z,1255
2023-03-26T12:54:50.679Z,1148
2023-03-26T12:56:10.788Z,1037
2023-03-26T12:57:31.860Z,3072
2023-03-26T12:58:52.940Z,890
2023-03-26T13:00:13.989Z,844
2023-03-26T13:01:35.061Z,790
2023-03-26T13:02:56.104Z,743
2023-03-26T13:04:17.187Z,698
2023-03-26T13:05:38.257Z,639
2023-03-26T13:06:59.325Z,563
2023-03-26T13:08:20.386Z,481
2023-03-26T13:09:41.454Z,445
2023-03-26T13:11:02.522Z,475
2023-03-26T13:12:23.594Z,531
2023-03-26T13:13:43.676Z,538
2023-03-26T13:15:04.744Z,544
2023-03-26T13:16:25.000Z,552
2023-03-26T13:17:46.859Z,3072
2023-03-26T13:19:07.924Z,578
2023-03-26T13:20:28.997Z,593
2023-03-26T13:21:50.065Z,614
2023-03-26T13:23:11.126Z,614
2023-03-26T13:24:32.000Z,613
2023-03-26T13:25:53.260Z,629
2023-03-26T13:27:14.000Z,695
2023-03-26T13:28:35.399Z,3072
2023-03-26T13:29:56.480Z,887
2023-03-26T13:31:16.556Z,990
2023-03-26T13:32:37.622Z,1071
2023-03-26T13:33:58.701Z,1091
2023-03-26T13:35:19.000Z,1084
2023-03-26T13:36:40.823Z,1027
2023-03-26T13:38:01.884Z,973
2023-03-26T13:39:22.951Z,876
2023-03-26T13:40:44.000Z,777
2023-03-26T13:42:05.089Z,736
2023-03-26T13:43:26.158Z,725
2023-03-26T13:44:47.199Z,733
2023-03-26T13:46:08.270Z,759
2023-03-26T13:47:29.369Z,841
2023-03-26T13:48:50.000Z,915
2023-03-26T13:50:11.584Z,978
2023-03-26T13:51:32.000Z,938
2023-03-26T13:52:53.752Z,3072
2023-03-26T13:54:14.000Z,856
2023-03-26T13:55:35.889Z,934
2023-03-26T13:56:56.939Z,991
2023-03-26T13:58:18.010Z,1042
2023-03-26T13:59:39.000Z,1066
2023-03-26T14:01:00.128Z,1113
2023-03-26T14:02:21.215Z,1211
2023-03-26T14:03:42.252Z,1212
2023-03-26T14:05:03.342Z,1165
2023-03-26T14:06:23.421Z,1100
2023-03-26T14:07:44.000Z,1067
2023-03-26T14:09:05.562Z,1063
2023-03-26T14:10:26.608Z,1059
2023-03-26T14:11:47.688Z,1059
2023-03-26T14:13:08.000Z,1048
2023-03-26T14:14:29.822Z,1037
2023-03-26T14:15:50.000Z,1046
2023-03-26T14:17:11.975Z,1061
2023-03-26T14:18:33.000Z,1088
2023-03-26T14:19:54.095Z,1127
2023-03-26T14:21:15.000Z,1163
2023-03-26T14:22:36.234Z,1185
2023-03-26T14:23:57.314Z,1188
2023-03-26T14:25:18.464Z,1177
2023-03-26T14:26:39.000Z,1158
2023-03-26T14:28:00.628Z,3072
2023-03-26T14:29:21.710Z,1123
2023-03-26T14:30:42.780Z,1109
2023-03-26T14:32:03.830Z,1086
2023-03-26T14:33:24.905Z,1070
2023-03-26T14:34:46.000Z,1062
2023-03-26T14:36:07.000Z,1050
2023-03-26T14:37:28.115Z,1042
2023-03-26T14:38:49.175Z,1034
2023-03-26T14:40:10.000Z,1008
2023-03-26T14:41:31.292Z,996
2023-03-26T14:42:51.000Z,993
2023-03-26T14:44:12.467Z,984
2023-03-26T14:45:33.503Z,980
2023-03-26T14:46:54.587Z,983
2023-03-26T14:48:15.000Z,977
2023-03-26T14:49:36.737Z,972
2023-03-26T14:50:57.776Z,974
2023-03-26T14:52:18.857Z,969
2023-03-26T14:53:39.936Z,966
2023-03-26T14:55:00.966Z,962
2023-03-26T14:56:22.029Z,957
2023-03-26T14:57:43.133Z,956
2023-03-26T14:59:04.000Z,953
2023-03-26T15:00:24.000Z,946
2023-03-26T15:01:45.000Z,951
2023-03-26T15:03:06.414Z,948
2023-03-26T15:04:27.000Z,948
2023-03-26T15:05:48.000Z,949
2023-03-26T15:07:09.000Z,952
2023-03-26T15:08:30.672Z,938
2023-03-26T15:09:51.000Z,3072
2023-03-26T15:11:12.805Z,918
2023-03-26T15:12:33.847Z,905
2023-03-26T15:13:54.953Z,890
2023-03-26T15:15:16.000Z,875
2023-03-26T15:16:37.092Z,855
2023-03-26T15:17:57.000Z,843
2023-03-26T15:19:18.209Z,837
2023-03-26T15:20:39.000Z,829
2023-03-26T15:22:00.345Z,840
2023-03-26T15:23:21.000Z,848
2023-03-26T15:24:42.482Z,849
2023-03-26T15:26:03.000Z,858
2023-03-26T15:27:24.620Z,864
2023-03-26T15:28:45.000Z,871
2023-03-26T15:30:06.773Z,873
2023-03-26T15:31:27.000Z,871
2023-03-26T15:32:48.908Z,861
2023-03-26T15:34:09.000Z,845
2023-03-26T15:35:30.061Z,820
2023-03-26T15:36:51.000Z,788
2023-03-26T15:38:12.194Z,749
2023-03-26T15:39:33.000Z,714
2023-03-26T15:40:54.326Z,669
2023-03-26T15:42:15.000Z,639
2023-03-26T15:43:36.000Z,615
2023-03-26T15:44:57.540Z,585
2023-03-26T15:46:18.593Z,560
2023-03-26T15:47:39.000Z,3072
2023-03-26T15:49:00.745Z,536
2023-03-26T15:50:21.000Z,515
2023-03-26T15:51:42.874Z,500
2023-03-26T15:53:02.000Z,476
2023-03-26T15:54:23.993Z,466
2023-03-26T15:55:45.000Z,459
2023-03-26T15:57:06.151Z,456
2023-03-26T15:58:27.000Z,456
2023-03-26T15:59:48.284Z,451
2023-03-26T16:01:09.000Z,446
2023-03-26T16:02:30.411Z,440
2023-03-26T16:03:51.000Z,431
2023-03-26T16:05:12.552Z,427
2023-03-26T16:06:33.000Z,421
2023-03-26T16:07:54.656Z,409
2023-03-26T16:09:15.000Z,400
2023-03-26T16:10:35.805Z,385
2023-03-26T16:11:56.895Z,382
2023-03-26T16:13:17.964Z,377
2023-03-26T16:14:39.000Z,363
2023-03-26T16:16:00.093Z,364
2023-03-26T16:17:21.000Z,359
2023-03-26T16:18:42.224Z,360
2023-03-26T16:20:03.000Z,360
2023-03-26T16:21:24.353Z,353
2023-03-26T16:22:45.000Z,346
2023-03-26T16:24:06.467Z,340
2023-03-26T16:25:27.000Z,336
2023-03-26T16:26:48.647Z,3072
2023-03-26T16:28:08.710Z,314
2023-03-26T16:29:29.783Z,296
2023-03-26T16:30:50.000Z,291
2023-03-26T16:32:11.919Z,276
2023-03-26T16:33:33.000Z,269
2023-03-26T16:34:54.035Z,270
2023-03-26T16:36:15.000Z,260
2023-03-26T16:37:36.163Z,251
2023-03-26T16:38:57.264Z,235
2023-03-26T16:40:18.335Z,216
2023-03-26T16:41:39.393Z,200
2023-03-26T16:43:00.438Z,175
2023-03-26T16:44:21.000Z,148
2023-03-26T16:45:41.607Z,150
2023-03-26T16:47:02.000Z,167
2023-03-26T16:48:23.710Z,180
2023-03-26T16:49:44.000Z,175
2023-03-26T16:51:05.883Z,174
2023-03-26T16:52:25.955Z,166
2023-03-26T16:53:47.021Z,169
2023-03-26T16:55:08.091Z,148
2023-03-26T16:56:29.129Z,149
2023-03-26T16:57:50.219Z,149
2023-03-26T16:59:11.298Z,3072
2023-03-26T17:00:32.000Z,138
2023-03-26T17:01:53.440Z,3072
2023-03-26T17:03:14.000Z,132
2023-03-26T17:04:35.559Z,127
2023-03-26T17:05:56.609Z,116
2023-03-26T17:07:17.695Z,110
2023-03-26T17:08:38.759Z,111
2023-03-26T17:09:58.837Z,96
2023-03-26T17:11:19.000Z,91
2023-03-26T17:12:40.978Z,90
2023-03-26T17:14:02.000Z,86
2023-03-26T17:15:23.107Z,79
2023-03-26T17:16:44.000Z,71
2023-03-26T17:18:05.243Z,67
2023-03-26T17:19:26.300Z,62
2023-03-26T17:20:47.380Z,58
2023-03-26T17:22:08.436Z,47
2023-03-26T17:23:29.509Z,48
2023-03-26T17:24:50.000Z,45
2023-03-26T17:26:11.636Z,48
2023-03-26T17:27:31.688Z,39
2023-03-26T17:28:52.784Z,34
2023-03-26T17:30:13.857Z,40
2023-03-26T17:31:34.000Z,27
2023-03-26T17:32:55.995Z,22
2023-03-26T17:34:17.049Z,21
2023-03-26T17:35:38.084Z,26
2023-03-26T17:36:59.190Z,14
2023-03-26T17:38:20.222Z,15
2023-03-26T17:39:41.323Z,11
2023-03-26T17:41:02.389Z,11
2023-03-26T17:42:23.000Z,10
2023-03-26T17:43:44.512Z,3
2023-03-26T17:45:04.597Z,5
2023-03-26T17:46:25.676Z,6
2023-03-26T17:47:46.738Z,4
2023-03-26T17:49:07.794Z,1
2023-03-26T17:50:28.874Z,0
2023-03-26T17:51:49.000Z,1
2023-03-26T17:53:11.086Z,0
2023-03-26T17:54:32.000Z,2
2023-03-26T17:55:53.188Z,1
2023-03-26T17:57:14.000Z,1
2023-03-26T17:58:35.389Z,0
2023-03-26T17:59:56.502Z,0
2023-03-26T18:01:17.611Z,0
2023-03-26T18:02:37.739Z,0
2023-03-26T18:03:58.819Z,0
2023-03-26T18:05:19.956Z,0
2023-03-26T18:06:41.064Z,0
2023-03-26T18:08:02.000Z,0
2023-03-26T18:09:23.300Z,0
2023-03-26T18:10:44.397Z,0
2023-03-26T18:12:05.485Z,0
2023-03-26T18:13:26.628Z,0
2023-03-26T18:14:47.734Z,0
2023-03-26T18:16:08.818Z,0
2023-03-26T18:17:29.945Z,0
2023-03-26T18:18:51.000Z,0
2023-03-26T18:20:11.193Z,0
2023-03-26T18:21:32.267Z,0
2023-03-26T18:22:53.000Z,0
2023-03-26T18:24:14.000Z,0
2023-03-26T18:25:35.630Z,0
2023-03-26T18:26:56.733Z,0
2023-03-26T18:28:17.848Z,0
2023-03-26T18:29:38.954Z,0
2023-03-26T18:31:00.030Z,0
2023-03-26T18:32:21.170Z,0
2023-03-26T18:33:42.251Z,0
2023-03-26T18:35:03.365Z,0
2023-03-26T18:36:24.497Z,0
2023-03-26T18:37:44.000Z,0
2023-03-26T18:39:05.741Z,0
2023-03-26T18:40:26.857Z,0
2023-03-26T18:41:47.940Z,0
2023-03-26T18:43:09.061Z,0
2023-03-26T18:44:30.143Z,0
2023-03-26T18:45:51.292Z,0
2023-03-26T18:47:12.394Z,0
2023-03-26T18:48:33.470Z,0
2023-03-26T18:49:54.626Z,0
2023-03-26T18:51:15.725Z,0
2023-03-26T18:52:36.801Z,0
2023-03-26T18:53:57.936Z,0
2023-03-26T18:55:18.000Z,0
2023-03-26T18:56:39.183Z,0
2023-03-26T18:58:00.289Z,0
2023-03-26T18:59:21.369Z,0
2023-03-26T19:00:42.498Z,0
2023-03-26T19:02:03.581Z,0
2023-03-26T19:03:24.730Z,0
2023-03-26T19:04:45.796Z,0
2023-03-26T19:06:06.947Z,0
2023-03-26T19:07:28.047Z,0
2023-03-26T19:08:49.156Z,0
2023-03-26T19:10:10.273Z,0
2023-03-26T19:11:31.000Z,0
2023-03-26T19:12:51.501Z,0
2023-03-26T19:14:12.625Z,0
2023-03-26T19:29:33.592Z,0
2023-03-26T19:44:54.545Z,0
2023-03-26T20:00:15.516Z,0
2023-03-26T20:15:36.461Z,0
2023-03-26T20:30:57.459Z,0
2023-03-26T20:32:18.585Z,0
2023-03-26T20:33:39.655Z,0
2023-03-26T20:35:00.796Z,0
2023-03-26T20:36:21.902Z,0
2023-03-26T20:37:43.000Z,0
2023-03-26T20:39:04.115Z,0
2023-03-26T20:40:24.250Z,0
2023-03-26T20:41:45.350Z,0
2023-03-26T20:43:06.458Z,0
2023-03-26T20:44:27.581Z,0
2023-03-26T20:45:48.000Z,0
2023-03-26T20:47:09.761Z,0
2023-03-26T20:48:30.894Z,0
2023-03-26T20:49:52.011Z,0
2023-03-26T20:51:13.103Z,0
2023-03-26T20:52:34.209Z,0
2023-03-26T20:53:55.000Z,0
2023-03-26T20:55:16.436Z,0
2023-03-26T20:56:37.551Z,0
2023-03-26T20:57:57.662Z,0
2023-03-26T21:00:39.881Z,0
2023-03-26T21:02:01.000Z,0
2023-03-26T21:03:22.000Z,0
2023-03-26T21:04:43.205Z,0
2023-03-26T21:06:04.000Z,0
2023-03-26T21:07:25.431Z,0
2023-03-26T21:08:46.000Z,0
2023-03-26T21:10:07.652Z,0
2023-03-26T21:11:28.743Z,0
2023-03-26T21:12:49.872Z,0
2023-03-26T21:14:10.974Z,0
2023-03-26T21:15:31.116Z,0
2023-03-26T21:16:52.000Z,0
2023-03-26T21:18:13.000Z,0
2023-03-26T21:19:34.000Z,0
2023-03-26T21:20:55.000Z,0
2023-03-26T21:22:16.000Z,0
2023-03-26T21:23:37.756Z,0
2023-03-26T21:24:58.831Z,0
2023-03-26T21:26:19.000Z,0
2023-03-26T21:41:40.918Z,0
2023-03-26T21:57:01.915Z,0
2023-03-26T22:12:22.000Z,0
2023-03-26T22:27:43.810Z,0
2023-03-26T22:43:04.921Z,0
2023-03-26T22:58:25.000Z,0
2023-03-26T23:13:46.000Z,0
2023-03-26T23:29:07.833Z,0
2023-03-26T23:44:28.801Z,0
2023-03-26T23:59:49.760Z,0
